sensor_id;sensor_type;location;lat;lon;timestamp;pressure;altitude;pressure_sealevel;temperature;humidity
10940;BME280;5522;42.696;23.494;2022-12-20T00:01:27;53855.81;;;-139.68;100.00
10940;BME280;5522;42.696;23.494;2022-12-20T00:03:56;53863.88;;;-139.68;100.00
10940;BME280;5522;42.696;23.494;2022-12-20T00:06:24;53837.72;;;-139.68;100.00
10940;BME280;5522;42.696;23.494;2022-12-20T00:08:52;53863.88;;;-139.68;100.00
10940;BME280;5522;42.696;23.494;2022-12-20T00:11:21;53843.75;;;-139.68;100.00
10940;BME280;5522;42.696;23.494;2022-12-20T00:13:49;53813.59;;;-139.68;100.00
10940;BME280;5522;42.696;23.494;2022-12-20T00:16:18;53827.69;;;-139.68;100.00
10940;BME280;5522;42.696;23.494;2022-12-20T00:18:45;53869.91;;;-139.68;100.00
10940;BME280;5522;42.696;23.494;2022-12-20T00:21:13;53811.59;;;-139.68;100.00
10940;BME280;5522;42.696;23.494;2022-12-20T00:23:40;53849.78;;;-139.68;100.00
10940;BME280;5522;42.696;23.494;2022-12-20T00:26:09;53831.69;;;-139.68;100.00
10940;BME280;5522;42.696;23.494;2022-12-20T00:28:39;53821.66;;;-139.68;100.00
10940;BME280;5522;42.696;23.494;2022-12-20T00:31:08;53831.69;;;-139.68;100.00
10940;BME280;5522;42.696;23.494;2022-12-20T00:33:37;53811.59;;;-139.68;100.00
10940;BME280;5522;42.696;23.494;2022-12-20T00:36:05;53871.91;;;-139.68;100.00
10940;BME280;5522;42.696;23.494;2022-12-20T00:38:33;53819.63;;;-139.68;100.00
10940;BME280;5522;42.696;23.494;2022-12-20T00:41:00;53847.78;;;-139.68;100.00
10940;BME280;5522;42.696;23.494;2022-12-20T00:43:28;53827.69;;;-139.68;100.00
10940;BME280;5522;42.696;23.494;2022-12-20T00:45:58;53839.75;;;-139.68;100.00
10940;BME280;5522;42.696;23.494;2022-12-20T00:48:25;53843.75;;;-139.68;100.00
10940;BME280;5522;42.696;23.494;2022-12-20T00:50:57;53815.63;;;-139.68;100.00
10940;BME280;5522;42.696;23.494;2022-12-20T00:53:24;53837.72;;;-139.68;100.00
10940;BME280;5522;42.696;23.494;2022-12-20T00:55:51;53863.88;;;-139.68;100.00
10940;BME280;5522;42.696;23.494;2022-12-20T00:58:17;53847.78;;;-139.68;100.00
10940;BME280;5522;42.696;23.494;2022-12-20T01:05:57;53855.81;;;-139.68;100.00
10940;BME280;5522;42.696;23.494;2022-12-20T01:08:26;53833.72;;;-139.68;100.00
10940;BME280;5522;42.696;23.494;2022-12-20T01:10:59;53843.75;;;-139.68;100.00
10940;BME280;5522;42.696;23.494;2022-12-20T01:13:27;53829.69;;;-139.68;100.00
10940;BME280;5522;42.696;23.494;2022-12-20T01:15:54;53883.97;;;-139.68;100.00
10940;BME280;5522;42.696;23.494;2022-12-20T01:18:22;53813.59;;;-139.68;100.00
10940;BME280;5522;42.696;23.494;2022-12-20T01:20:48;53839.75;;;-139.68;100.00
10940;BME280;5522;42.696;23.494;2022-12-20T01:23:17;53823.66;;;-139.68;100.00
10940;BME280;5522;42.696;23.494;2022-12-20T01:25:44;53843.75;;;-139.68;100.00
10940;BME280;5522;42.696;23.494;2022-12-20T01:28:11;53871.91;;;-139.68;100.00
10940;BME280;5522;42.696;23.494;2022-12-20T01:30:39;53841.75;;;-139.68;100.00
10940;BME280;5522;42.696;23.494;2022-12-20T01:33:06;53863.88;;;-139.68;100.00
10940;BME280;5522;42.696;23.494;2022-12-20T01:35:33;53795.50;;;-139.68;100.00
10940;BME280;5522;42.696;23.494;2022-12-20T01:38:00;53865.88;;;-139.68;100.00
10940;BME280;5522;42.696;23.494;2022-12-20T01:40:29;53855.81;;;-139.68;100.00
10940;BME280;5522;42.696;23.494;2022-12-20T01:42:55;53845.78;;;-139.68;100.00
10940;BME280;5522;42.696;23.494;2022-12-20T01:45:26;53837.72;;;-139.68;100.00
10940;BME280;5522;42.696;23.494;2022-12-20T01:47:55;53849.78;;;-139.68;100.00
10940;BME280;5522;42.696;23.494;2022-12-20T01:50:23;53791.50;;;-139.68;100.00
10940;BME280;5522;42.696;23.494;2022-12-20T01:52:51;53835.72;;;-139.68;100.00
10940;BME280;5522;42.696;23.494;2022-12-20T01:55:21;53831.69;;;-139.68;100.00
10940;BME280;5522;42.696;23.494;2022-12-20T01:57:54;53839.75;;;-139.68;100.00
10940;BME280;5522;42.696;23.494;2022-12-20T02:00:23;53839.75;;;-139.68;100.00
10940;BME280;5522;42.696;23.494;2022-12-20T02:02:50;53827.69;;;-139.68;100.00
10940;BME280;5522;42.696;23.494;2022-12-20T02:05:19;53869.91;;;-139.68;100.00
10940;BME280;5522;42.696;23.494;2022-12-20T02:07:48;53803.56;;;-139.68;100.00
10940;BME280;5522;42.696;23.494;2022-12-20T02:10:18;53829.69;;;-139.68;100.00
10940;BME280;5522;42.696;23.494;2022-12-20T02:12:47;53843.75;;;-139.68;100.00
10940;BME280;5522;42.696;23.494;2022-12-20T02:15:30;53847.78;;;-139.68;100.00
10940;BME280;5522;42.696;23.494;2022-12-20T02:18:07;53819.63;;;-139.68;100.00
10940;BME280;5522;42.696;23.494;2022-12-20T02:27:05;53835.72;;;-139.68;100.00
10940;BME280;5522;42.696;23.494;2022-12-20T02:32:45;53839.75;;;-139.68;100.00
10940;BME280;5522;42.696;23.494;2022-12-20T02:35:19;53837.72;;;-139.68;100.00
10940;BME280;5522;42.696;23.494;2022-12-20T02:37:47;53877.94;;;-139.68;100.00
10940;BME280;5522;42.696;23.494;2022-12-20T02:40:16;53829.69;;;-139.68;100.00
10940;BME280;5522;42.696;23.494;2022-12-20T02:42:45;53831.69;;;-139.68;100.00
10940;BME280;5522;42.696;23.494;2022-12-20T02:45:15;53843.75;;;-139.68;100.00
10940;BME280;5522;42.696;23.494;2022-12-20T02:47:47;53809.59;;;-139.68;100.00
10940;BME280;5522;42.696;23.494;2022-12-20T02:50:17;53841.75;;;-139.68;100.00
10940;BME280;5522;42.696;23.494;2022-12-20T02:52:47;53805.56;;;-139.68;100.00
10940;BME280;5522;42.696;23.494;2022-12-20T02:55:15;53831.69;;;-139.68;100.00
10940;BME280;5522;42.696;23.494;2022-12-20T02:57:46;53849.78;;;-139.68;100.00
10940;BME280;5522;42.696;23.494;2022-12-20T03:00:18;53847.78;;;-139.68;100.00
10940;BME280;5522;42.696;23.494;2022-12-20T03:02:47;53851.81;;;-139.68;100.00
10940;BME280;5522;42.696;23.494;2022-12-20T03:05:34;53831.69;;;-139.68;100.00
10940;BME280;5522;42.696;23.494;2022-12-20T03:08:01;53815.63;;;-139.68;100.00
10940;BME280;5522;42.696;23.494;2022-12-20T03:10:29;53815.63;;;-139.68;100.00
10940;BME280;5522;42.696;23.494;2022-12-20T03:12:56;53821.66;;;-139.68;100.00
10940;BME280;5522;42.696;23.494;2022-12-20T03:15:24;53817.63;;;-139.68;100.00
10940;BME280;5522;42.696;23.494;2022-12-20T03:17:51;53819.63;;;-139.68;100.00
10940;BME280;5522;42.696;23.494;2022-12-20T03:20:18;53767.38;;;-139.68;100.00
10940;BME280;5522;42.696;23.494;2022-12-20T03:22:45;53827.69;;;-139.68;100.00
10940;BME280;5522;42.696;23.494;2022-12-20T03:25:11;53783.44;;;-139.68;100.00
10940;BME280;5522;42.696;23.494;2022-12-20T03:27:38;53783.44;;;-139.68;100.00
10940;BME280;5522;42.696;23.494;2022-12-20T03:30:06;53763.34;;;-139.68;100.00
10940;BME280;5522;42.696;23.494;2022-12-20T03:32:35;53815.63;;;-139.68;100.00
10940;BME280;5522;42.696;23.494;2022-12-20T03:35:02;53783.44;;;-139.68;100.00
10940;BME280;5522;42.696;23.494;2022-12-20T03:37:29;53791.50;;;-139.68;100.00
10940;BME280;5522;42.696;23.494;2022-12-20T03:39:55;53779.44;;;-139.68;100.00
10940;BME280;5522;42.696;23.494;2022-12-20T03:42:22;53791.50;;;-139.68;100.00
10940;BME280;5522;42.696;23.494;2022-12-20T03:44:49;53815.63;;;-139.68;100.00
10940;BME280;5522;42.696;23.494;2022-12-20T03:47:16;53815.63;;;-139.68;100.00
10940;BME280;5522;42.696;23.494;2022-12-20T03:49:44;53831.69;;;-139.68;100.00
10940;BME280;5522;42.696;23.494;2022-12-20T03:52:12;53799.53;;;-139.68;100.00
10940;BME280;5522;42.696;23.494;2022-12-20T03:54:39;53787.47;;;-139.68;100.00
10940;BME280;5522;42.696;23.494;2022-12-20T03:57:06;53823.66;;;-139.68;100.00
10940;BME280;5522;42.696;23.494;2022-12-20T03:59:33;53791.50;;;-139.68;100.00
10940;BME280;5522;42.696;23.494;2022-12-20T04:02:01;53793.50;;;-139.68;100.00
10940;BME280;5522;42.696;23.494;2022-12-20T04:04:28;53815.63;;;-139.68;100.00
10940;BME280;5522;42.696;23.494;2022-12-20T04:06:57;53797.53;;;-139.68;100.00
10940;BME280;5522;42.696;23.494;2022-12-20T04:09:24;53825.66;;;-139.68;100.00
10940;BME280;5522;42.696;23.494;2022-12-20T04:11:51;53799.53;;;-139.68;100.00
10940;BME280;5522;42.696;23.494;2022-12-20T04:14:18;53795.50;;;-139.68;100.00
10940;BME280;5522;42.696;23.494;2022-12-20T04:16:45;53799.53;;;-139.68;100.00
10940;BME280;5522;42.696;23.494;2022-12-20T04:19:12;53767.38;;;-139.68;100.00
10940;BME280;5522;42.696;23.494;2022-12-20T04:21:39;53811.59;;;-139.68;100.00
10940;BME280;5522;42.696;23.494;2022-12-20T04:24:07;53795.50;;;-139.68;100.00
10940;BME280;5522;42.696;23.494;2022-12-20T04:26:35;53771.38;;;-139.68;100.00
10940;BME280;5522;42.696;23.494;2022-12-20T04:29:02;53795.50;;;-139.68;100.00
10940;BME280;5522;42.696;23.494;2022-12-20T04:31:29;53809.59;;;-139.68;100.00
10940;BME280;5522;42.696;23.494;2022-12-20T04:33:56;53805.56;;;-139.68;100.00
10940;BME280;5522;42.696;23.494;2022-12-20T04:36:23;53783.44;;;-139.68;100.00
10940;BME280;5522;42.696;23.494;2022-12-20T04:38:50;53759.31;;;-139.68;100.00
10940;BME280;5522;42.696;23.494;2022-12-20T04:41:18;53759.31;;;-139.68;100.00
10940;BME280;5522;42.696;23.494;2022-12-20T04:43:49;53775.41;;;-139.68;100.00
10940;BME280;5522;42.696;23.494;2022-12-20T04:46:16;53793.50;;;-139.68;100.00
10940;BME280;5522;42.696;23.494;2022-12-20T04:48:44;53793.50;;;-139.68;100.00
10940;BME280;5522;42.696;23.494;2022-12-20T04:51:11;53739.22;;;-139.68;100.00
10940;BME280;5522;42.696;23.494;2022-12-20T04:53:38;53783.44;;;-139.68;100.00
10940;BME280;5522;42.696;23.494;2022-12-20T04:56:15;53771.38;;;-139.68;100.00
10940;BME280;5522;42.696;23.494;2022-12-20T04:58:44;53761.34;;;-139.68;100.00
10940;BME280;5522;42.696;23.494;2022-12-20T05:01:12;53791.50;;;-139.68;100.00
10940;BME280;5522;42.696;23.494;2022-12-20T05:03:39;53759.31;;;-139.68;100.00
10940;BME280;5522;42.696;23.494;2022-12-20T05:06:07;53799.53;;;-139.68;100.00
10940;BME280;5522;42.696;23.494;2022-12-20T05:08:34;53807.56;;;-139.68;100.00
10940;BME280;5522;42.696;23.494;2022-12-20T05:11:02;53761.34;;;-139.68;100.00
10940;BME280;5522;42.696;23.494;2022-12-20T05:13:30;53761.34;;;-139.68;100.00
10940;BME280;5522;42.696;23.494;2022-12-20T05:15:58;53789.47;;;-139.68;100.00
10940;BME280;5522;42.696;23.494;2022-12-20T05:18:26;53779.44;;;-139.68;100.00
10940;BME280;5522;42.696;23.494;2022-12-20T05:20:54;53769.38;;;-139.68;100.00
10940;BME280;5522;42.696;23.494;2022-12-20T05:23:36;53819.63;;;-139.68;100.00
10940;BME280;5522;42.696;23.494;2022-12-20T05:26:20;53789.47;;;-139.68;100.00
10940;BME280;5522;42.696;23.494;2022-12-20T05:28:49;53755.31;;;-139.68;100.00
10940;BME280;5522;42.696;23.494;2022-12-20T05:31:18;53775.41;;;-139.68;100.00
10940;BME280;5522;42.696;23.494;2022-12-20T05:33:45;53779.44;;;-139.68;100.00
10940;BME280;5522;42.696;23.494;2022-12-20T05:36:12;53777.41;;;-139.68;100.00
10940;BME280;5522;42.696;23.494;2022-12-20T05:38:39;53775.41;;;-139.68;100.00
10940;BME280;5522;42.696;23.494;2022-12-20T05:41:06;53763.34;;;-139.68;100.00
10940;BME280;5522;42.696;23.494;2022-12-20T05:43:33;53799.53;;;-139.68;100.00
10940;BME280;5522;42.696;23.494;2022-12-20T05:46:00;53765.34;;;-139.68;100.00
10940;BME280;5522;42.696;23.494;2022-12-20T05:48:28;53795.50;;;-139.68;100.00
10940;BME280;5522;42.696;23.494;2022-12-20T05:50:55;53763.34;;;-139.68;100.00
10940;BME280;5522;42.696;23.494;2022-12-20T05:53:22;53793.50;;;-139.68;100.00
10940;BME280;5522;42.696;23.494;2022-12-20T05:55:51;53745.25;;;-139.68;100.00
10940;BME280;5522;42.696;23.494;2022-12-20T05:58:19;53767.38;;;-139.68;100.00
10940;BME280;5522;42.696;23.494;2022-12-20T06:00:46;53809.59;;;-139.68;100.00
10940;BME280;5522;42.696;23.494;2022-12-20T06:03:13;53803.56;;;-139.68;100.00
10940;BME280;5522;42.696;23.494;2022-12-20T06:05:43;53775.41;;;-139.68;100.00
10940;BME280;5522;42.696;23.494;2022-12-20T06:08:10;53775.41;;;-139.68;100.00
10940;BME280;5522;42.696;23.494;2022-12-20T06:10:39;53757.31;;;-139.68;100.00
10940;BME280;5522;42.696;23.494;2022-12-20T06:13:06;53783.44;;;-139.68;100.00
10940;BME280;5522;42.696;23.494;2022-12-20T06:15:33;53783.44;;;-139.68;100.00
10940;BME280;5522;42.696;23.494;2022-12-20T06:18:00;53807.56;;;-139.68;100.00
10940;BME280;5522;42.696;23.494;2022-12-20T06:20:28;53759.31;;;-139.68;100.00
10940;BME280;5522;42.696;23.494;2022-12-20T06:22:57;53801.53;;;-139.68;100.00
10940;BME280;5522;42.696;23.494;2022-12-20T06:25:24;53795.50;;;-139.68;100.00
10940;BME280;5522;42.696;23.494;2022-12-20T06:27:51;53807.56;;;-139.68;100.00
10940;BME280;5522;42.696;23.494;2022-12-20T06:30:18;53819.63;;;-139.68;100.00
10940;BME280;5522;42.696;23.494;2022-12-20T06:32:46;53759.31;;;-139.68;100.00
10940;BME280;5522;42.696;23.494;2022-12-20T06:35:13;53775.41;;;-139.68;100.00
10940;BME280;5522;42.696;23.494;2022-12-20T06:37:41;53777.41;;;-139.68;100.00
10940;BME280;5522;42.696;23.494;2022-12-20T06:40:12;53799.53;;;-139.68;100.00
10940;BME280;5522;42.696;23.494;2022-12-20T06:42:39;53823.66;;;-139.68;100.00
10940;BME280;5522;42.696;23.494;2022-12-20T06:45:07;53803.56;;;-139.68;100.00
10940;BME280;5522;42.696;23.494;2022-12-20T06:47:34;53823.66;;;-139.68;100.00
10940;BME280;5522;42.696;23.494;2022-12-20T06:50:02;53815.63;;;-139.68;100.00
10940;BME280;5522;42.696;23.494;2022-12-20T06:52:29;53779.44;;;-139.68;100.00
10940;BME280;5522;42.696;23.494;2022-12-20T06:54:56;53819.63;;;-139.68;100.00
10940;BME280;5522;42.696;23.494;2022-12-20T06:57:24;53793.50;;;-139.68;99.09
10940;BME280;5522;42.696;23.494;2022-12-20T06:59:51;53815.63;;;-139.68;94.55
10940;BME280;5522;42.696;23.494;2022-12-20T07:02:18;53807.56;;;-139.68;92.69
10940;BME280;5522;42.696;23.494;2022-12-20T07:04:45;53823.66;;;-139.68;91.52
10940;BME280;5522;42.696;23.494;2022-12-20T07:07:12;53819.63;;;-139.68;87.81
10940;BME280;5522;42.696;23.494;2022-12-20T07:09:39;53811.59;;;-139.68;81.57
10940;BME280;5522;42.696;23.494;2022-12-20T07:12:07;53811.59;;;-139.68;73.32
10940;BME280;5522;42.696;23.494;2022-12-20T07:14:36;53823.66;;;-139.68;72.33
10940;BME280;5522;42.696;23.494;2022-12-20T07:17:04;53853.81;;;-139.68;74.58
10940;BME280;5522;42.696;23.494;2022-12-20T07:19:32;53833.72;;;-139.68;75.62
10940;BME280;5522;42.696;23.494;2022-12-20T07:22:00;53803.56;;;-139.68;75.73
10940;BME280;5522;42.696;23.494;2022-12-20T07:24:27;53845.78;;;-139.68;74.74
10940;BME280;5522;42.696;23.494;2022-12-20T07:26:54;53807.56;;;-139.68;76.21
10940;BME280;5522;42.696;23.494;2022-12-20T07:29:21;53805.56;;;-139.68;71.16
10940;BME280;5522;42.696;23.494;2022-12-20T07:31:50;53821.66;;;-139.68;69.75
10940;BME280;5522;42.696;23.494;2022-12-20T07:34:17;53811.59;;;-139.68;65.09
10940;BME280;5522;42.696;23.494;2022-12-20T07:36:44;53833.72;;;-139.68;63.80
10940;BME280;5522;42.696;23.494;2022-12-20T07:39:11;53831.69;;;-139.68;59.42
10940;BME280;5522;42.696;23.494;2022-12-20T07:41:38;53803.56;;;-139.68;60.47
10940;BME280;5522;42.696;23.494;2022-12-20T07:44:05;53797.53;;;-139.68;63.38
10940;BME280;5522;42.696;23.494;2022-12-20T07:46:32;53843.75;;;-139.68;65.64
10940;BME280;5522;42.696;23.494;2022-12-20T07:49:00;53813.59;;;-139.68;65.38
10940;BME280;5522;42.696;23.494;2022-12-20T07:51:31;53845.78;;;-139.68;62.35
10940;BME280;5522;42.696;23.494;2022-12-20T07:54:03;53801.53;;;-139.68;62.97
10940;BME280;5522;42.696;23.494;2022-12-20T07:56:32;53763.34;;;-139.68;65.81
10940;BME280;5522;42.696;23.494;2022-12-20T07:59:01;53815.63;;;-139.68;69.01
10940;BME280;5522;42.696;23.494;2022-12-20T08:01:29;53801.53;;;-139.68;68.39
10940;BME280;5522;42.696;23.494;2022-12-20T08:04:01;53807.56;;;-139.68;64.59
10940;BME280;5522;42.696;23.494;2022-12-20T08:06:30;53817.63;;;-139.68;65.48
10940;BME280;5522;42.696;23.494;2022-12-20T08:08:59;53827.69;;;-139.68;66.10
10940;BME280;5522;42.696;23.494;2022-12-20T08:11:29;53849.78;;;-139.68;65.87
10940;BME280;5522;42.696;23.494;2022-12-20T08:13:56;53815.63;;;-139.68;69.58
10940;BME280;5522;42.696;23.494;2022-12-20T08:16:23;53783.44;;;-139.68;65.59
10940;BME280;5522;42.696;23.494;2022-12-20T08:18:50;53819.63;;;-139.68;66.67
10940;BME280;5522;42.696;23.494;2022-12-20T08:21:19;53805.56;;;-139.68;64.42
10940;BME280;5522;42.696;23.494;2022-12-20T08:23:46;53817.63;;;-139.68;63.69
10940;BME280;5522;42.696;23.494;2022-12-20T08:26:13;53831.69;;;-139.68;61.37
10940;BME280;5522;42.696;23.494;2022-12-20T08:28:40;53813.59;;;-139.68;59.67
10940;BME280;5522;42.696;23.494;2022-12-20T08:31:08;53835.72;;;-139.68;60.48
10940;BME280;5522;42.696;23.494;2022-12-20T08:33:37;53811.59;;;-139.68;57.15
10940;BME280;5522;42.696;23.494;2022-12-20T08:36:06;53807.56;;;-139.68;54.05
10940;BME280;5522;42.696;23.494;2022-12-20T08:38:35;53833.72;;;-139.68;54.18
10940;BME280;5522;42.696;23.494;2022-12-20T08:41:04;53857.84;;;-139.68;51.65
10940;BME280;5522;42.696;23.494;2022-12-20T08:43:32;53813.59;;;-139.68;51.79
10940;BME280;5522;42.696;23.494;2022-12-20T08:45:59;53815.63;;;-139.68;48.26
10940;BME280;5522;42.696;23.494;2022-12-20T08:48:26;53819.63;;;-139.68;47.89
10940;BME280;5522;42.696;23.494;2022-12-20T08:50:54;53817.63;;;-139.68;48.13
10940;BME280;5522;42.696;23.494;2022-12-20T08:53:22;53849.78;;;-139.68;50.28
10940;BME280;5522;42.696;23.494;2022-12-20T08:55:51;53825.66;;;-139.68;47.74
10940;BME280;5522;42.696;23.494;2022-12-20T08:58:17;53819.63;;;-139.68;46.47
10940;BME280;5522;42.696;23.494;2022-12-20T09:00:45;53803.56;;;-139.68;46.59
10940;BME280;5522;42.696;23.494;2022-12-20T09:03:12;53823.66;;;-139.68;45.84
10940;BME280;5522;42.696;23.494;2022-12-20T09:05:44;53841.75;;;-139.68;44.41
10940;BME280;5522;42.696;23.494;2022-12-20T09:08:12;53859.84;;;-139.68;45.33
10940;BME280;5522;42.696;23.494;2022-12-20T09:10:39;53845.78;;;-139.68;43.54
10940;BME280;5522;42.696;23.494;2022-12-20T09:13:08;53827.69;;;-139.68;43.40
10940;BME280;5522;42.696;23.494;2022-12-20T09:15:35;53845.78;;;-139.68;43.00
10940;BME280;5522;42.696;23.494;2022-12-20T09:18:03;53849.78;;;-139.68;45.24
10940;BME280;5522;42.696;23.494;2022-12-20T09:20:30;53827.69;;;-139.68;45.91
10940;BME280;5522;42.696;23.494;2022-12-20T09:22:57;53837.72;;;-139.68;46.72
10940;BME280;5522;42.696;23.494;2022-12-20T09:25:25;53835.72;;;-139.68;45.03
10940;BME280;5522;42.696;23.494;2022-12-20T09:27:52;53831.69;;;-139.68;45.35
10940;BME280;5522;42.696;23.494;2022-12-20T09:30:21;53863.88;;;-139.68;42.53
10940;BME280;5522;42.696;23.494;2022-12-20T09:32:48;53837.72;;;-139.68;42.36
10940;BME280;5522;42.696;23.494;2022-12-20T09:35:15;53819.63;;;-139.68;42.47
10940;BME280;5522;42.696;23.494;2022-12-20T09:37:42;53863.88;;;-139.68;42.18
10940;BME280;5522;42.696;23.494;2022-12-20T09:40:15;53837.72;;;-139.68;43.31
10940;BME280;5522;42.696;23.494;2022-12-20T09:42:43;53835.72;;;-139.68;41.79
10940;BME280;5522;42.696;23.494;2022-12-20T09:45:19;53839.75;;;-139.68;40.11
10940;BME280;5522;42.696;23.494;2022-12-20T09:47:49;53825.66;;;-139.68;41.25
10940;BME280;5522;42.696;23.494;2022-12-20T09:50:18;53815.63;;;-139.68;40.24
10940;BME280;5522;42.696;23.494;2022-12-20T09:53:01;53827.69;;;-139.68;41.65
10940;BME280;5522;42.696;23.494;2022-12-20T09:55:40;53831.69;;;-139.68;40.89
10940;BME280;5522;42.696;23.494;2022-12-20T09:58:25;53843.75;;;-139.68;39.94
10940;BME280;5522;42.696;23.494;2022-12-20T10:00:55;53863.88;;;-139.68;39.42
10940;BME280;5522;42.696;23.494;2022-12-20T10:03:28;53787.47;;;-139.68;38.25
10940;BME280;5522;42.696;23.494;2022-12-20T10:05:59;53845.78;;;-139.68;38.55
10940;BME280;5522;42.696;23.494;2022-12-20T10:08:43;53847.78;;;-139.68;37.59
10940;BME280;5522;42.696;23.494;2022-12-20T10:11:19;53799.53;;;-139.68;36.76
10940;BME280;5522;42.696;23.494;2022-12-20T10:13:59;53869.91;;;-139.68;39.08
10940;BME280;5522;42.696;23.494;2022-12-20T10:16:39;53849.78;;;-139.68;37.25
10940;BME280;5522;42.696;23.494;2022-12-20T10:19:18;53839.75;;;-139.68;37.19
10940;BME280;5522;42.696;23.494;2022-12-20T10:21:52;53851.81;;;-139.68;37.92
10940;BME280;5522;42.696;23.494;2022-12-20T10:24:25;53867.88;;;-139.68;37.61
10940;BME280;5522;42.696;23.494;2022-12-20T10:26:53;53847.78;;;-139.68;36.51
10940;BME280;5522;42.696;23.494;2022-12-20T10:29:20;53851.81;;;-139.68;37.68
10940;BME280;5522;42.696;23.494;2022-12-20T10:31:49;53851.81;;;-139.68;38.49
10940;BME280;5522;42.696;23.494;2022-12-20T10:34:18;53845.78;;;-139.68;37.79
10940;BME280;5522;42.696;23.494;2022-12-20T10:36:48;53847.78;;;-139.68;37.80
10940;BME280;5522;42.696;23.494;2022-12-20T10:39:15;53847.78;;;-139.68;37.13
10940;BME280;5522;42.696;23.494;2022-12-20T10:41:48;53817.63;;;-139.68;37.89
10940;BME280;5522;42.696;23.494;2022-12-20T10:44:21;53839.75;;;-139.68;38.69
10940;BME280;5522;42.696;23.494;2022-12-20T10:46:52;53803.56;;;-139.68;39.38
10940;BME280;5522;42.696;23.494;2022-12-20T10:49:26;53813.59;;;-139.68;39.48
10940;BME280;5522;42.696;23.494;2022-12-20T10:51:56;53815.63;;;-139.68;39.17
10940;BME280;5522;42.696;23.494;2022-12-20T10:54:29;53843.75;;;-139.68;39.53
10940;BME280;5522;42.696;23.494;2022-12-20T10:56:57;53807.56;;;-139.68;40.17
10940;BME280;5522;42.696;23.494;2022-12-20T10:59:30;53837.72;;;-139.68;39.81
10940;BME280;5522;42.696;23.494;2022-12-20T11:01:58;53821.66;;;-139.68;38.67
10940;BME280;5522;42.696;23.494;2022-12-20T11:04:29;53843.75;;;-139.68;38.10
10940;BME280;5522;42.696;23.494;2022-12-20T11:06:57;53871.91;;;-139.68;37.87
10940;BME280;5522;42.696;23.494;2022-12-20T11:09:28;53839.75;;;-139.68;38.01
10940;BME280;5522;42.696;23.494;2022-12-20T11:12:08;53827.69;;;-139.68;36.82
10940;BME280;5522;42.696;23.494;2022-12-20T11:14:38;53855.81;;;-139.68;38.10
10940;BME280;5522;42.696;23.494;2022-12-20T11:17:23;53871.91;;;-139.68;38.59
10940;BME280;5522;42.696;23.494;2022-12-20T11:20:03;53825.66;;;-139.68;37.02
10940;BME280;5522;42.696;23.494;2022-12-20T11:22:45;53823.66;;;-139.68;37.30
10940;BME280;5522;42.696;23.494;2022-12-20T11:25:30;53845.78;;;-139.68;37.76
10940;BME280;5522;42.696;23.494;2022-12-20T11:28:13;53841.75;;;-139.68;38.05
10940;BME280;5522;42.696;23.494;2022-12-20T11:30:52;53827.69;;;-139.68;38.16
10940;BME280;5522;42.696;23.494;2022-12-20T11:33:37;53835.72;;;-139.68;38.27
10940;BME280;5522;42.696;23.494;2022-12-20T11:36:20;53811.59;;;-139.68;39.79
10940;BME280;5522;42.696;23.494;2022-12-20T11:38:57;53829.69;;;-139.68;40.23
10940;BME280;5522;42.696;23.494;2022-12-20T11:41:30;53823.66;;;-139.68;41.95
10940;BME280;5522;42.696;23.494;2022-12-20T11:44:13;53839.75;;;-139.68;41.95
10940;BME280;5522;42.696;23.494;2022-12-20T11:47:03;53807.56;;;-139.68;43.68
10940;BME280;5522;42.696;23.494;2022-12-20T11:49:58;53801.53;;;-139.68;45.46
10940;BME280;5522;42.696;23.494;2022-12-20T11:52:34;53811.59;;;-139.68;42.95
10940;BME280;5522;42.696;23.494;2022-12-20T11:55:08;53831.69;;;-139.68;43.49
10940;BME280;5522;42.696;23.494;2022-12-20T11:57:45;53829.69;;;-139.68;46.02
10940;BME280;5522;42.696;23.494;2022-12-20T12:00:15;53815.63;;;-139.68;44.43
10940;BME280;5522;42.696;23.494;2022-12-20T12:02:46;53809.59;;;-139.68;43.61
10940;BME280;5522;42.696;23.494;2022-12-20T12:05:19;53821.66;;;-139.68;44.64
10940;BME280;5522;42.696;23.494;2022-12-20T12:07:52;53839.75;;;-139.68;44.54
10940;BME280;5522;42.696;23.494;2022-12-20T12:10:23;53807.56;;;-139.68;44.48
10940;BME280;5522;42.696;23.494;2022-12-20T12:12:57;53763.34;;;-139.68;47.68
10940;BME280;5522;42.696;23.494;2022-12-20T12:15:30;53821.66;;;-139.68;44.37
10940;BME280;5522;42.696;23.494;2022-12-20T12:18:04;53867.88;;;-139.68;44.15
10940;BME280;5522;42.696;23.494;2022-12-20T12:20:38;53819.63;;;-139.68;46.59
10940;BME280;5522;42.696;23.494;2022-12-20T12:23:17;53791.50;;;-139.68;46.62
10940;BME280;5522;42.696;23.494;2022-12-20T12:25:47;53799.53;;;-139.68;45.76
10940;BME280;5522;42.696;23.494;2022-12-20T12:28:16;53819.63;;;-139.68;46.11
10940;BME280;5522;42.696;23.494;2022-12-20T12:30:49;53823.66;;;-139.68;45.55
10940;BME280;5522;42.696;23.494;2022-12-20T12:33:23;53827.69;;;-139.68;45.08
10940;BME280;5522;42.696;23.494;2022-12-20T12:36:15;53817.63;;;-139.68;44.54
10940;BME280;5522;42.696;23.494;2022-12-20T12:44:53;53835.72;;;-139.68;43.70
10940;BME280;5522;42.696;23.494;2022-12-20T12:47:29;53793.50;;;-139.68;44.17
10940;BME280;5522;42.696;23.494;2022-12-20T12:50:00;53849.78;;;-139.68;43.81
10940;BME280;5522;42.696;23.494;2022-12-20T12:52:39;53803.56;;;-139.68;43.67
10940;BME280;5522;42.696;23.494;2022-12-20T12:55:36;53815.63;;;-139.68;43.61
10940;BME280;5522;42.696;23.494;2022-12-20T12:58:31;53807.56;;;-139.68;44.51
10940;BME280;5522;42.696;23.494;2022-12-20T13:00:59;53831.69;;;-139.68;44.83
10940;BME280;5522;42.696;23.494;2022-12-20T13:04:19;53801.53;;;-139.68;46.96
10940;BME280;5522;42.696;23.494;2022-12-20T13:06:56;53797.53;;;-139.68;46.71
10940;BME280;5522;42.696;23.494;2022-12-20T13:09:38;53817.63;;;-139.68;47.85
10940;BME280;5522;42.696;23.494;2022-12-20T13:15:48;53815.63;;;-139.68;46.94